Estación Meteorológica Peña el Pijo (Robertgarden) [ 11/12/18 21:33:06 CET ]

Fecha Hora Presion(HPa) Temp (°C) Humedad % Rocio (°C) Viento ( m/s) Direccion Lluvia 1Hora(mm) Lluvia 24H(mm) LLuvia Total(mm)
2018-Sep-27 01:01:44 1021.000 15.3 84 12.6       0.51 354.83
2018-Sep-27 02:01:43 1020.800 15.0 86 12.7       0.51 354.83
2018-Sep-27 03:04:12 1020.400 14.9 87 12.8       0.51 354.83
2018-Sep-27 04:01:37 1020.000 14.8 88 12.8       0.51 354.83
2018-Sep-27 05:01:59 1019.700 14.9 89 13.1       0.51 354.83
2018-Sep-27 06:01:39 1019.700 14.8 89 13.0     1.03 1.03 355.86
2018-Sep-27 07:01:37 1019.700 14.4 90 12.8       1.03 355.86
2018-Sep-27 08:01:49 1019.900 14.4 90 12.8       1.03 355.86
2018-Sep-27 09:01:42 1019.900 14.6 91 13.2     0.51 1.55 356.38
2018-Sep-27 10:01:40 1020.300 14.9 91 13.5       1.55 356.38
2018-Sep-27 11:01:53 1020.300 16.6 90 15.0       1.55 356.38
2018-Sep-27 12:01:40 1020.400 17.3 86 14.9       1.55 356.38
2018-Sep-27 13:01:42 1019.700 18.1 82 15.0       1.55 356.38
2018-Sep-27 14:01:40 1019.200 18.9 77 14.8       1.55 356.38
2018-Sep-27 15:01:38 1018.600 20.9 71 15.4       1.55 356.38
2018-Sep-27 16:01:38 1018.000 20.9 66 14.3       1.55 356.38
2018-Sep-27 17:02:09 1017.700 23.9 57 14.9       1.55 356.38
2018-Sep-27 18:01:37 1017.100 23.1 55 13.5       1.55 356.38
2018-Sep-27 19:01:41 1016.900 20.8 58 12.2       1.55 356.38
2018-Sep-27 20:01:42 1016.800 17.8 68 11.8       1.55 356.38
2018-Sep-27 21:01:53 1016.800 15.5 76 11.3       1.55 356.38
2018-Sep-27 22:01:31 1017.100 13.9 79 10.3       1.55 356.38
2018-Sep-27 23:01:30 1017.000 13.8 83 10.9       1.55 356.38

Temperatura Máxima:23°    Temperatura Mínima:13°
Presión Máxima:1021.000 Hpa    Presión Mínima:1016.800 Hpa


Volver